02MI weather

Fairplains Airpark
Greenville, Michigan, United States

Public forecast

Using degrees Fahrenheit for public forecast. Weather courtesy of forecast.io.

METAR (pilot weather report)

Closest report is Ionia County Airport, 13.7 nm (25.4 km) SSE. Retrieved 2019/09/17 09:39 UTC (0 seconds ago):

KY70 170939Z AUTO 04003KT 2SM BR OVC002 15/14 A3019 RMK AO2 T01490142

TAF (pilot weather forecast)

Closest forecast is Gerald R. Ford International Airport, 23.3 nm (43.2 km) SW. Retrieved 2019/09/17 06:42 UTC (3 hours ago):

TAF KGRR 170540Z 1706/1806 06005KT P6SM SCT100 FM170900 07005KT 2SM BR BKN004 FM171300 10005KT 5SM BR BKN045 FM171500 12006KT P6SM BKN015 FM171700 10006KT P6SM BKN250